Flight Track Log - Related Links

Times and Time Zones

All times are in EDT time to prevent confusion due to time zone crossing. See the N8614Y flight status page for this flight to view local times or setup timezone preferences in your user account.

Time Position Orientation Groundspeed Altitude Reporting Facility
EDT Latitude Longitude Course Direction KTS MPH feet Rate Location/Type
Mon 08:12:48 AM 28.3667 -80.7167 270° West 107 123 1,400  Level Orlando TRACON
Mon 08:13:12 AM 28.3667 -80.7333 270° West 114 131 1,800 918 Climbing Orlando TRACON
Mon 08:14:13 AM 28.4000 -80.7500 336° Northwest 117 135 2,700 900 Climbing Orlando TRACON
Mon 08:15:12 AM 28.4333 -80.7667 336° Northwest 129 148 3,600 1,000 Climbing Orlando TRACON
Mon 08:16:13 AM 28.4667 -80.7833 336° Northwest 127 146 4,700 893 Climbing Orlando TRACON
Mon 08:17:13 AM 28.5000 -80.7833 360° North 129 148 5,400 700 Climbing Orlando TRACON
Mon 08:18:13 AM 28.5333 -80.8000 336° Northwest 127 146 6,100 750 Climbing Orlando TRACON
Mon 08:19:13 AM 28.5667 -80.8167 336° Northwest 111 128 6,900 400 Climbing Orlando TRACON
Mon 08:20:13 AM 28.6000 -80.8333 336° Northwest 148 170 6,900  Level Orlando TRACON
Mon 08:21:13 AM 28.6333 -80.8500 336° Northwest 150 173 6,900  Level Orlando TRACON
Mon 08:22:13 AM 28.6833 -80.8667 344° North 151 174 6,900  Level Orlando TRACON
Mon 08:24:22 AM 28.7606 -80.8961 342° North 151 174 6,900  Level Jacksonville Center
Mon 08:25:11 AM 28.7942 -80.9144 334° Northwest 154 177 6,900  Level Jacksonville Center
Mon 08:26:12 AM 28.8339 -80.9278 344° North 151 174 6,900  Level Jacksonville Center
Mon 08:27:18 AM 28.8781 -80.9458 340° North 152 175 6,900  Level Jacksonville Center
Mon 08:28:19 AM 28.9200 -80.9642 339° North 154 177 6,900  Level Jacksonville Center
Mon 08:29:14 AM 28.9578 -80.9775 343° North 154 177 6,900  Level Jacksonville Center
Mon 08:30:21 AM 29.0019 -80.9958 340° North 155 178 6,900  Level Jacksonville Center
Mon 08:31:15 AM 29.0397 -81.0092 343° North 154 177 6,900  Level Jacksonville Center
Mon 08:32:16 AM 29.0797 -81.0275 338° Northwest 154 177 6,900  Level Jacksonville Center
Mon 08:33:17 AM 29.1197 -81.0458 338° Northwest 152 175 6,900  Level Jacksonville Center
Mon 08:34:18 AM 29.1594 -81.0592 344° North 153 176 6,900  Level Jacksonville Center
Mon 08:35:19 AM 29.2014 -81.0750 342° North 154 177 6,900  Level Jacksonville Center
Mon 08:36:20 AM 29.2433 -81.0933 339° North 154 177 6,900  Level Jacksonville Center
Mon 08:37:20 AM 29.2811 -81.1094 340° North 152 175 6,900  Level Jacksonville Center
Mon 08:38:21 AM 29.3253 -81.1300 338° Northwest 154 177 6,900  Level Jacksonville Center
Mon 08:39:22 AM 29.3611 -81.1533 330° Northwest 155 178 6,900  Level Jacksonville Center
Mon 08:40:23 AM 29.4031 -81.1644 347° North 151 174 6,900  Level Jacksonville Center
Mon 08:41:24 AM 29.4428 -81.1781 343° North 150 173 6,900  Level Jacksonville Center
Mon 08:42:25 AM 29.4828 -81.1964 338° Northwest 150 173 6,900  Level Jacksonville Center
Mon 08:43:37 AM 29.5250 -81.2267 328° Northwest 153 176 6,900  Level Jacksonville Center
Mon 08:44:25 AM 29.5567 -81.2500 327° Northwest 151 174 6,900  Level Jacksonville Center
Mon 08:45:32 AM 29.5986 -81.2731 334° Northwest 152 175 6,900  Level Jacksonville Center
Mon 08:46:39 AM 29.6406 -81.2964 334° Northwest 153 176 6,900  Level Jacksonville Center
Mon 08:47:40 AM 29.6786 -81.3219 330° Northwest 154 177 6,900  Level Jacksonville Center
Mon 08:48:41 AM 29.7164 -81.3453 332° Northwest 153 176 6,900  Level Jacksonville Center
Mon 08:49:30 AM 29.7481 -81.3639 333° Northwest 154 177 6,900  Level Jacksonville Center
Mon 08:50:43 AM 29.7942 -81.3967 328° Northwest 155 178 6,900  Level Jacksonville Center
Mon 08:51:38 AM 29.8258 -81.4131 336° Northwest 152 175 6,900  Level Jacksonville Center
Mon 08:52:45 AM 29.8678 -81.4411 330° Northwest 153 176 6,900  Level Jacksonville Center
Mon 08:53:40 AM 29.9014 -81.4597 334° Northwest 153 176 6,900  Level Jacksonville Center
Mon 08:54:35 AM 29.9353 -81.4856 327° Northwest 155 178 6,900  Level Jacksonville Center
Mon 08:55:36 AM 29.9731 -81.5092 332° Northwest 152 175 6,900  Level Jacksonville Center
Mon 08:56:43 AM 30.0150 -81.5350 332° Northwest 154 177 6,900  Level Jacksonville Center
Mon 08:57:44 AM 30.0550 -81.5583 333° Northwest 155 178 6,900 50 Level Jacksonville Center
Mon 08:58:44 AM 30.0928 -81.5817 332° Northwest 155 178 7,000 52 Climbing Jacksonville Center
Mon 08:59:39 AM 30.1286 -81.6053 330° Northwest 154 177 7,000  Level Jacksonville Center
Mon 09:00:34 AM 30.1642 -81.6264 333° Northwest 156 180 7,000  Level Jacksonville Center
Mon 09:01:35 AM 30.2042 -81.6522 331° Northwest 157 181 7,000  Level Jacksonville Center
Mon 09:02:36 AM 30.2439 -81.6758 333° Northwest 158 182 7,000  Level Jacksonville Center
Mon 09:03:37 AM 30.2797 -81.6994 330° Northwest 156 180 7,000  Level Jacksonville Center
Mon 09:04:32 AM 30.3156 -81.7231 330° Northwest 158 182 7,000  Level Jacksonville Center
Mon 09:05:39 AM 30.3575 -81.7514 330° Northwest 160 184 7,000  Level Jacksonville Center
Mon 09:06:40 AM 30.3994 -81.7775 332° Northwest 161 185 7,000  Level Jacksonville Center
Mon 09:07:41 AM 30.4394 -81.8011 333° Northwest 160 184 7,000  Level Jacksonville Center
Mon 09:08:42 AM 30.4772 -81.8272 329° Northwest 161 185 7,000  Level Jacksonville Center
Mon 09:09:43 AM 30.5169 -81.8533 330° Northwest 161 185 7,000  Level Jacksonville Center
Mon 09:10:43 AM 30.5569 -81.8769 333° Northwest 161 185 7,000  Level Jacksonville Center
Mon 09:11:38 AM 30.5947 -81.9006 332° Northwest 162 186 7,000  Level Jacksonville Center
Mon 09:12:45 AM 30.6344 -81.9269 330° Northwest 162 186 7,000  Level Jacksonville Center
Mon 09:13:46 AM 30.6786 -81.9506 335° Northwest 162 186 7,000  Level Jacksonville Center
Mon 09:14:33 AM 30.7058 -81.9744 323° Northwest 162 186 7,000  Level Jacksonville Center
Mon 09:15:33 AM 30.7458 -82.0006 331° Northwest 162 186 7,000  Level Jacksonville Center
Mon 09:16:33 AM 30.7856 -82.0244 333° Northwest 162 186 7,000  Level Jacksonville Center
Mon 09:17:33 AM 30.8275 -82.0506 332° Northwest 162 186 7,000  Level Jacksonville Center
Mon 09:18:33 AM 30.8653 -82.0769 329° Northwest 162 186 7,000  Level Jacksonville Center
Mon 09:19:33 AM 30.9072 -82.1033 332° Northwest 162 186 7,000  Level Jacksonville Center
Mon 09:20:33 AM 30.9450 -82.1297 329° Northwest 162 186 7,000  Level Jacksonville Center
Mon 09:21:33 AM 30.9847 -82.1558 331° Northwest 162 186 7,000  Level Jacksonville Center
Mon 09:22:33 AM 31.0267 -82.1775 336° Northwest 162 186 7,000  Level Jacksonville Center
Mon 09:23:33 AM 31.0664 -82.2039 330° Northwest 162 186 7,000  Level Jacksonville Center
Mon 09:24:33 AM 31.1083 -82.2278 334° Northwest 162 186 7,000  Level Jacksonville Center
Mon 09:25:33 AM 31.1481 -82.2542 330° Northwest 162 186 7,000  Level Jacksonville Center
Mon 09:26:33 AM 31.1878 -82.2781 333° Northwest 162 186 7,000 200 Level Jacksonville Center
Mon 09:27:33 AM 31.2256 -82.3022 331° Northwest 162 186 7,400 450 Climbing Jacksonville Center
Mon 09:28:33 AM 31.2592 -82.3189 337° Northwest 155 178 7,900 300 Climbing Jacksonville Center
Mon 09:29:33 AM 31.2967 -82.3431 331° Northwest 150 173 8,000 50 Climbing Jacksonville Center
Mon 09:30:33 AM 31.3344 -82.3672 331° Northwest 150 173 8,000  Level Jacksonville Center
Mon 09:31:33 AM 31.3742 -82.3889 335° Northwest 150 173 8,000  Level Jacksonville Center
Mon 09:32:33 AM 31.4161 -82.4153 332° Northwest 155 178 8,000  Level Jacksonville Center
Mon 09:33:33 AM 31.4558 -82.4419 330° Northwest 160 184 8,000  Level Jacksonville Center
Mon 09:34:33 AM 31.4956 -82.4639 335° Northwest 160 184 8,000  Level Jacksonville Center
Mon 09:35:33 AM 31.5333 -82.4881 331° Northwest 160 184 8,000  Level Jacksonville Center
Mon 09:36:33 AM 31.5750 -82.5147 331° Northwest 160 184 8,000  Level Jacksonville Center
Mon 09:37:33 AM 31.6147 -82.5389 333° Northwest 166 191 8,000  Level Jacksonville Center
Mon 09:38:33 AM 31.6525 -82.5631 331° Northwest 166 191 8,000  Level Jacksonville Center
Mon 09:39:33 AM 31.6922 -82.5875 332° Northwest 166 191 8,000  Level Jacksonville Center
Mon 09:40:33 AM 31.7342 -82.6117 334° Northwest 166 191 8,000  Level Jacksonville Center
Mon 09:41:33 AM 31.7694 -82.6361 329° Northwest 166 191 8,000  Level Jacksonville Center
Mon 09:42:33 AM 31.8114 -82.6603 334° Northwest 161 185 8,000  Level Jacksonville Center
Mon 09:43:33 AM 31.8531 -82.6847 334° Northwest 166 191 8,000  Level Jacksonville Center
Mon 09:44:33 AM 31.8928 -82.7114 330° Northwest 161 185 8,000  Level Jacksonville Center
Mon 09:45:33 AM 31.9325 -82.7383 330° Northwest 161 185 8,000  Level Jacksonville Center
Mon 09:46:33 AM 31.9722 -82.7628 332° Northwest 161 185 8,000  Level Jacksonville Center
Mon 09:47:33 AM 32.0119 -82.7897 330° Northwest 166 191 8,000  Level Jacksonville Center
Mon 09:49:15 AM 32.0833 -82.8333 333° Northwest 162 186 8,000  Level Atlanta TRACON
Mon 09:50:15 AM 32.1167 -82.8500 337° Northwest 168 193 8,000 -50 Level Atlanta TRACON
Mon 09:51:15 AM 32.1667 -82.8833 331° Northwest 167 192 7,900 -48 Descending Atlanta TRACON
Mon 09:52:21 AM 32.2000 -82.9167 320° Northwest 165 190 7,900  Level Atlanta TRACON
Mon 09:53:15 AM 32.2500 -82.9333 344° North 165 190 7,900  Level Atlanta TRACON
Mon 09:54:21 AM 32.2833 -82.9667 320° Northwest 166 191 7,900  Level Atlanta TRACON
Mon 09:55:15 AM 32.3167 -82.9833 337° Northwest 163 188 7,900  Level Atlanta TRACON
Mon 09:56:15 AM 32.3667 -83.0167 331° Northwest 164 189 7,900  Level Atlanta TRACON
Mon 09:57:15 AM 32.4000 -83.0333 337° Northwest 163 188 7,900  Level Atlanta TRACON
Mon 09:58:15 AM 32.4500 -83.0667 331° Northwest 163 188 7,900  Level Atlanta TRACON
Mon 09:59:09 AM 32.4833 -83.0833 337° Northwest 163 188 7,900  Level Atlanta TRACON
Mon 10:00:09 AM 32.5167 -83.1000 337° Northwest 163 188 7,900  Level Atlanta TRACON
Mon 10:01:09 AM 32.5667 -83.1333 331° Northwest 163 188 7,900  Level Atlanta TRACON
Mon 10:02:15 AM 32.6000 -83.1667 320° Northwest 162 186 7,900  Level Atlanta TRACON
Mon 10:03:09 AM 32.6333 -83.1833 337° Northwest 161 185 7,900  Level Atlanta TRACON
Mon 10:04:09 AM 32.6833 -83.2167 331° Northwest 163 188 7,900  Level Atlanta TRACON
Mon 10:05:09 AM 32.7167 -83.2333 337° Northwest 162 186 7,900  Level Atlanta TRACON
Mon 10:06:09 AM 32.7667 -83.2667 331° Northwest 162 186 7,900  Level Atlanta TRACON
Mon 10:07:09 AM 32.8000 -83.2833 337° Northwest 161 185 7,900  Level Atlanta TRACON
Mon 10:08:09 AM 32.8333 -83.3167 320° Northwest 161 185 7,900  Level Atlanta TRACON
Mon 10:09:03 AM 32.8667 -83.3333 337° Northwest 160 184 7,900  Level Atlanta TRACON
Mon 10:10:09 AM 32.9167 -83.3667 331° Northwest 162 186 7,900  Level Atlanta TRACON
Mon 10:11:09 AM 32.9500 -83.3833 337° Northwest 163 188 7,900  Level Atlanta TRACON
Mon 10:12:09 AM 33.0000 -83.4167 331° Northwest 163 188 7,900  Level Atlanta TRACON
Mon 10:13:03 AM 33.0333 -83.4333 337° Northwest 161 185 7,900  Level Atlanta TRACON
Mon 10:14:03 AM 33.0667 -83.4667 320° Northwest 166 191 7,900  Level Atlanta TRACON
Mon 10:15:03 AM 33.1167 -83.4833 344° North 164 189 7,900  Level Atlanta TRACON
Mon 10:16:03 AM 33.1500 -83.5167 320° Northwest 165 190 7,900  Level Atlanta TRACON
Mon 10:17:03 AM 33.2000 -83.5333 344° North 166 191 7,900  Level Atlanta TRACON
Mon 10:18:03 AM 33.2333 -83.5667 320° Northwest 168 193 7,900  Level Atlanta TRACON
Mon 10:19:03 AM 33.2667 -83.5833 337° Northwest 167 192 7,900  Level Atlanta TRACON
Mon 10:20:03 AM 33.3167 -83.6167 331° Northwest 170 196 7,900  Level Atlanta TRACON
Mon 10:21:03 AM 33.3500 -83.6500 320° Northwest 171 197 7,900  Level Atlanta TRACON
Mon 10:22:03 AM 33.4000 -83.6667 344° North 171 197 7,900 -250 Level Atlanta TRACON
Mon 10:23:03 AM 33.4333 -83.7000 320° Northwest 180 207 7,400 -526 Descending Atlanta TRACON
Mon 10:23:57 AM 33.4667 -83.7333 320° Northwest 179 206 6,900 -261 Descending Atlanta TRACON
Mon 10:24:58 AM 33.5167 -83.7667 331° Northwest 162 186 6,900  Level Atlanta TRACON
Mon 10:25:57 AM 33.5500 -83.7833 337° Northwest 158 182 6,900  Level Atlanta TRACON
Mon 10:26:57 AM 33.6000 -83.8000 344° North 158 182 6,900  Level Atlanta TRACON
Mon 10:27:57 AM 33.6333 -83.8167 337° Northwest 158 182 6,900 -50 Level Atlanta TRACON
Mon 10:28:58 AM 33.6833 -83.8333 344° North 160 184 6,800 -298 Descending Atlanta TRACON
Mon 10:29:58 AM 33.7333 -83.8333 360° North 178 205 6,300 -432 Descending Atlanta TRACON
Mon 10:31:03 AM 33.7667 -83.8667 320° Northwest 178 205 5,900 -202 Descending Atlanta TRACON
Mon 10:31:57 AM 33.8000 -83.9000 320° Northwest 169 194 5,900  Level Atlanta TRACON
Mon 10:32:57 AM 33.8333 -83.9333 320° Northwest 166 191 5,900  Level Atlanta TRACON
Mon 10:33:57 AM 33.8667 -83.9833 309° West 166 191 5,900  Level Atlanta TRACON
Mon 10:34:57 AM 33.8833 -84.0333 292° West 166 191 5,900  Level Atlanta TRACON
Mon 10:35:57 AM 33.9000 -84.0833 292° West 169 194 5,900  Level Atlanta TRACON
Mon 10:36:57 AM 33.9167 -84.1333 292° West 169 194 5,900  Level Atlanta TRACON
Mon 10:37:58 AM 33.9333 -84.1833 292° West 179 206 5,900  Level Atlanta TRACON
Mon 10:38:58 AM 33.9333 -84.2500 270° West 164 189 5,900  Level Atlanta TRACON
Mon 10:39:58 AM 33.9500 -84.3000 292° West 173 199 5,900  Level Atlanta TRACON
Mon 10:40:58 AM 33.9667 -84.3500 292° West 168 193 5,900  Level Atlanta TRACON
Mon 10:41:58 AM 33.9833 -84.4000 292° West 164 189 5,900 -100 Level Atlanta TRACON
Mon 10:42:58 AM 34.0000 -84.4500 292° West 168 193 5,700 -300 Descending Atlanta TRACON
Mon 10:43:58 AM 34.0167 -84.5000 292° West 172 198 5,300 -500 Descending Atlanta TRACON
Mon 10:44:58 AM 34.0333 -84.5667 287° West 178 205 4,700 -632 Descending Atlanta TRACON
Mon 10:45:52 AM 34.0500 -84.6167 292° West 184 212 4,100 -522 Descending Atlanta TRACON
Mon 10:46:53 AM 34.0667 -84.6667 292° West 183 211 3,700 -393 Descending Atlanta TRACON

Login

Don't have an account? Register now (free) for customized features, flight alerts, and more!